Аэропорт: Уфа. Уфа

ICAO: UWUU

METAR:
2022-06-26 10:30:00
UWUU 261030Z 33005MPS 290V030 9999 BKN040 19/07 Q1010 R32L/0///60 NOSIG
METAR:
2022-06-26 07:46:00
TAF UWUU 260746Z 2609/2709 32006G12MPS 9999 BKN030 TX18/2611Z TN10/2701Z TEMPO 2609/2618 34010G18MPS -SHRA BKN016CB